Airfield :
LOGIN :

Register | Disclaimer

   EN    FR    IT 

 










Legend :    VFR   Marginal VFR   IFR   Intensive IFR   Very Intensive IFR
Visi :
Ceiling :
>= 8 km
>= 3000ft
5 to 8 km
1000 to 3000 ft
1500m to 5 km
500 to 1000 ft
800 to 1500m
200 to 500 ft
< 800m
< 200 ft
Symbols :   Thunderstorms  Fog  Heavy snow  Heavy precipitations  Wind > 20 kt
SIGMETs :     Misc.  Thunderstorms  Icing  Turbulence  Mountain Waves  Volcanic Ashes







- Airport Elevation : 510 ft


LJCE - Cerklje

CURRENT METAR :
  • 200930Z 04009G19KT 350V080 CAVOK 10/M06 Q1032 RMK BLU

EXPIRED METARs :
  • 200900Z 04012KT 350V070 9999 FEW045 09/M07 Q1032 RMK BLU
  • 200830Z 05013KT 010V080 9999 FEW040 09/M06 Q1032 RMK BLU
  • 200800Z VRB06G17KT 9999 FEW035 08/M04 Q1032 RMK BLU
  • 200730Z 19002KT CAVOK 06/M03 Q1032 R09/CLRD// RMK BLU
  • 200700Z VRB01KT CAVOK 04/00 Q1032 R09/CLRD// RMK BLU

TAF TAF LJCE
Valid from the 20 at 09:00 until the 20 at 18:00 UTC


200800Z 2009/2018 08005KT CAVOK
TEMPO 2009/2018 07010KT
No reported NOTAMs for that airfield.
1 SIGMET reported for the Ljubljana FIR (LJLA) :
 
Severe turbulence
LJLA SIGMET 1 VALID 200830/201000 LJLJ
LJLA LJUBLJANA FIR SEV TURB FCST WI N4523 E01347 - N4530 E01440 - N4541 E01425 - N4530 E01340 - N4523 E01347 SFC/6000FT STNR NC=



MET'MAP, your aeronautical weather chart ! - Copyright ORBIFLY December 2007 - Disclaimer

ORBIFLY MET'MAP TEAM :

Programming & Development : Alexandra Zaïnal
Concept & Development : Baudouin d'Aumeries
Co-Development & Prog : Marc-Olivier Méhu
Technical & hardware support : Manuel Goepfert

Contact : metmap@orbifly.com




SOURCES & CREDITS :

   NOAA